createdAt,value
2022-12-17T00:02:46.167Z,-0.82
2022-12-17T00:05:50.781Z,-0.75
2022-12-17T00:08:58.566Z,-0.77
2022-12-17T00:12:20.988Z,-0.73
2022-12-17T00:15:25.957Z,-0.78
2022-12-17T00:18:30.684Z,-0.76
2022-12-17T00:21:35.441Z,-0.72
2022-12-17T00:24:39.331Z,-0.68
2022-12-17T00:27:43.223Z,-0.71
2022-12-17T00:31:00.328Z,-0.69
2022-12-17T00:34:05.232Z,-0.71
2022-12-17T00:37:09.271Z,-0.70
2022-12-17T00:40:13.134Z,-0.70
2022-12-17T00:43:26.217Z,-0.74
2022-12-17T00:46:30.516Z,-0.71
2022-12-17T00:49:34.534Z,-0.72
2022-12-17T00:52:38.274Z,-0.65
2022-12-17T00:55:42.149Z,-0.52
2022-12-17T00:58:46.279Z,-0.61
2022-12-17T01:01:50.546Z,-0.67
2022-12-17T01:04:55.378Z,-0.80
2022-12-17T01:08:01.158Z,-0.70
2022-12-17T01:11:05.911Z,-0.66
2022-12-17T01:14:10.508Z,-0.69
2022-12-17T01:17:14.700Z,-0.69
2022-12-17T01:20:18.119Z,-0.81
2022-12-17T01:23:21.854Z,-0.84
2022-12-17T01:26:25.625Z,-0.89
2022-12-17T01:29:29.582Z,-0.80
2022-12-17T01:32:33.436Z,-0.69
2022-12-17T01:35:39.051Z,-0.76
2022-12-17T01:38:42.691Z,-0.72
2022-12-17T01:41:48.617Z,-0.75
2022-12-17T01:45:06.775Z,-0.79
2022-12-17T01:48:22.444Z,-0.81
2022-12-17T01:51:26.264Z,-0.83
2022-12-17T01:54:30.691Z,-0.81
2022-12-17T01:57:34.374Z,-0.75
2022-12-17T02:00:39.372Z,-0.80
2022-12-17T02:03:44.285Z,-0.78
2022-12-17T02:06:56.642Z,-0.72
2022-12-17T02:10:30.410Z,-0.62
2022-12-17T02:13:57.768Z,-0.62
2022-12-17T02:17:09.309Z,-0.53
2022-12-17T02:20:32.813Z,-0.57
2022-12-17T02:23:56.537Z,-0.65
2022-12-17T02:27:04.581Z,-0.72
2022-12-17T02:30:13.531Z,-0.71
2022-12-17T02:33:18.277Z,-0.86
2022-12-17T02:36:24.994Z,-0.97
2022-12-17T02:39:29.050Z,-0.99
2022-12-17T02:42:34.890Z,-0.99
2022-12-17T02:45:40.154Z,-0.88
2022-12-17T02:48:44.563Z,-0.85
2022-12-17T02:51:48.762Z,-0.92
2022-12-17T02:54:52.868Z,-0.85
2022-12-17T02:57:57.105Z,-0.94
2022-12-17T03:01:04.740Z,-0.97
2022-12-17T03:04:08.531Z,-0.91
2022-12-17T03:07:12.290Z,-0.89
2022-12-17T03:10:18.269Z,-0.86
2022-12-17T03:13:22.575Z,-0.84
2022-12-17T03:16:35.749Z,-0.85
2022-12-17T03:19:41.209Z,-0.77
2022-12-17T03:22:44.851Z,-0.70
2022-12-17T03:25:49.024Z,-0.78
2022-12-17T03:28:52.841Z,-0.96
2022-12-17T03:31:56.548Z,-0.97
2022-12-17T03:35:00.504Z,-0.86
2022-12-17T03:38:04.422Z,-0.84
2022-12-17T03:41:11.253Z,-0.96
2022-12-17T03:44:15.086Z,-1.02
2022-12-17T03:47:20.512Z,-1.05
2022-12-17T03:50:24.936Z,-1.06
2022-12-17T03:53:28.651Z,-0.95
2022-12-17T03:56:32.522Z,-1.04
2022-12-17T03:59:36.462Z,-1.16
2022-12-17T04:02:40.693Z,-1.09
2022-12-17T04:05:49.453Z,-1.11
2022-12-17T04:08:53.719Z,-1.03
2022-12-17T04:11:57.646Z,-0.99
2022-12-17T04:15:01.535Z,-0.90
2022-12-17T04:18:05.476Z,-0.88
2022-12-17T04:21:09.416Z,-0.90
2022-12-17T04:24:13.216Z,-0.83
2022-12-17T04:27:17.081Z,-0.90
2022-12-17T04:30:20.733Z,-0.94
2022-12-17T04:33:24.501Z,-1.02
2022-12-17T04:36:28.516Z,-1.09
2022-12-17T04:39:32.250Z,-1.10
2022-12-17T04:42:36.159Z,-1.02
2022-12-17T04:45:40.273Z,-0.95
2022-12-17T04:48:44.003Z,-0.85
2022-12-17T04:51:47.794Z,-0.72
2022-12-17T04:54:51.682Z,-0.66
2022-12-17T04:57:55.450Z,-0.68
2022-12-17T05:00:59.188Z,-0.63
2022-12-17T05:04:03.064Z,-0.54
2022-12-17T05:07:06.777Z,-0.46
2022-12-17T05:10:10.638Z,-0.47
2022-12-17T05:13:18.591Z,-0.56
2022-12-17T05:16:22.373Z,-0.53
2022-12-17T05:19:26.317Z,-0.55
2022-12-17T05:22:32.889Z,-0.58
2022-12-17T05:25:37.679Z,-0.64
2022-12-17T05:28:41.656Z,-0.67
2022-12-17T05:32:05.327Z,-0.87
2022-12-17T05:35:09.016Z,-1.01
2022-12-17T05:38:12.779Z,-1.16
2022-12-17T05:41:18.092Z,-1.18
2022-12-17T05:44:21.918Z,-1.07
2022-12-17T05:47:25.756Z,-0.94
2022-12-17T05:50:29.424Z,-0.88
2022-12-17T05:53:34.448Z,-0.81
2022-12-17T05:56:38.448Z,-0.75
2022-12-17T05:59:42.136Z,-0.84
2022-12-17T06:02:46.156Z,-0.93
2022-12-17T06:05:50.270Z,-1.20
2022-12-17T06:08:54.116Z,-1.39
2022-12-17T06:12:02.370Z,-1.45
2022-12-17T06:15:06.960Z,-1.37
2022-12-17T06:18:16.469Z,-1.35
2022-12-17T06:21:37.481Z,-1.37
2022-12-17T06:24:45.746Z,-1.27
2022-12-17T06:27:49.905Z,-1.26
2022-12-17T06:30:53.539Z,-1.26
2022-12-17T06:33:58.078Z,-1.20
2022-12-17T06:37:01.770Z,-1.05
2022-12-17T06:40:05.898Z,-0.99
2022-12-17T06:43:13.842Z,-0.93
2022-12-17T06:46:17.708Z,-0.88
2022-12-17T06:49:21.204Z,-0.99
2022-12-17T06:52:25.122Z,-1.03
2022-12-17T06:55:28.782Z,-1.00
2022-12-17T06:58:32.639Z,-0.95
2022-12-17T07:01:36.598Z,-0.94
2022-12-17T07:04:40.803Z,-0.87
2022-12-17T07:07:44.595Z,-0.91
2022-12-17T07:10:48.461Z,-0.79
2022-12-17T07:13:52.305Z,-0.79
2022-12-17T07:16:56.100Z,-0.69
2022-12-17T07:19:59.933Z,-0.75
2022-12-17T07:23:03.812Z,-0.82
2022-12-17T07:26:07.692Z,-0.86
2022-12-17T07:29:11.359Z,-1.01
2022-12-17T07:32:15.129Z,-1.05
2022-12-17T07:35:19.031Z,-0.97
2022-12-17T07:38:24.035Z,-0.92
2022-12-17T07:41:28.139Z,-0.87
2022-12-17T07:44:31.880Z,-0.80
2022-12-17T07:47:35.750Z,-0.73
2022-12-17T07:50:39.476Z,-0.74
2022-12-17T07:53:43.507Z,-0.62
2022-12-17T07:56:47.414Z,-0.56
2022-12-17T07:59:51.349Z,-0.54
2022-12-17T08:02:55.320Z,-0.51
2022-12-17T08:05:59.055Z,-0.47
2022-12-17T08:09:02.864Z,-0.49
2022-12-17T08:12:06.543Z,-0.52
2022-12-17T08:15:10.365Z,-0.71
2022-12-17T08:18:26.430Z,-0.91
2022-12-17T08:21:31.357Z,-1.05
2022-12-17T08:24:35.345Z,-1.18
2022-12-17T08:27:39.242Z,-1.24
2022-12-17T08:30:43.102Z,-1.15
2022-12-17T08:33:46.804Z,-1.10
2022-12-17T08:36:50.813Z,-0.95
2022-12-17T08:39:54.567Z,-1.05
2022-12-17T08:42:58.581Z,-1.05
2022-12-17T08:46:09.498Z,-0.99
2022-12-17T08:49:12.997Z,-0.87
2022-12-17T08:52:16.929Z,-0.75
2022-12-17T08:55:20.847Z,-0.67
2022-12-17T08:58:24.761Z,-0.49
2022-12-17T09:01:28.771Z,-0.43
2022-12-17T09:04:33.071Z,-0.32
2022-12-17T09:07:36.869Z,-0.18
2022-12-17T09:10:40.831Z,-0.02
2022-12-17T09:13:44.550Z,0.01
2022-12-17T09:16:48.547Z,-0.11
2022-12-17T09:19:52.442Z,-0.12
2022-12-17T09:22:56.491Z,-0.04
2022-12-17T09:26:00.226Z,-0.01
2022-12-17T09:29:04.131Z,-0.07
2022-12-17T09:32:07.941Z,0.07
2022-12-17T09:35:11.780Z,0.20
2022-12-17T09:38:16.197Z,0.26
2022-12-17T09:41:59.721Z,0.36
2022-12-17T09:45:17.014Z,0.38
2022-12-17T09:48:32.263Z,0.36
2022-12-17T09:51:47.582Z,0.36
2022-12-17T09:55:07.102Z,0.37
2022-12-17T09:58:10.875Z,0.43
2022-12-17T10:01:15.460Z,0.39
2022-12-17T10:04:20.157Z,0.43
2022-12-17T10:07:39.526Z,0.39
2022-12-17T10:10:45.606Z,0.37
2022-12-17T10:13:49.572Z,0.30
2022-12-17T10:17:05.867Z,0.26
2022-12-17T10:20:13.620Z,-0.02
2022-12-17T10:23:17.463Z,-0.16
2022-12-17T10:26:25.422Z,-0.46
2022-12-17T10:29:34.320Z,-0.42
2022-12-17T10:32:41.723Z,-0.36
2022-12-17T10:35:54.567Z,-0.22
2022-12-17T10:38:58.905Z,-0.16
2022-12-17T10:42:02.606Z,0.02
2022-12-17T10:45:06.491Z,0.00
2022-12-17T10:48:10.332Z,-0.11
2022-12-17T10:51:14.209Z,0.02
2022-12-17T10:54:27.738Z,0.02
2022-12-17T10:57:54.351Z,-0.14
2022-12-17T11:00:59.239Z,-0.09
2022-12-17T11:04:17.418Z,0.01
2022-12-17T11:07:21.986Z,0.16
2022-12-17T11:10:33.926Z,0.19
2022-12-17T11:13:50.276Z,0.32
2022-12-17T11:17:00.858Z,0.42
2022-12-17T11:20:10.877Z,0.48
2022-12-17T11:23:17.867Z,0.36
2022-12-17T11:26:29.214Z,0.22
2022-12-17T11:29:32.956Z,0.23
2022-12-17T11:32:43.010Z,0.28
2022-12-17T11:35:51.249Z,0.14
2022-12-17T11:39:03.919Z,0.11
2022-12-17T11:42:38.693Z,0.19
2022-12-17T11:45:50.084Z,0.26
2022-12-17T11:49:01.709Z,0.22
2022-12-17T11:52:18.247Z,0.18
2022-12-17T11:55:40.853Z,0.09
2022-12-17T11:59:04.416Z,0.01
2022-12-17T12:02:50.734Z,0.06
2022-12-17T12:05:56.885Z,0.08
2022-12-17T12:09:28.437Z,0.10
2022-12-17T12:12:49.000Z,0.00
2022-12-17T12:16:14.751Z,-0.12
2022-12-17T12:19:33.704Z,-0.20
2022-12-17T12:23:15.835Z,-0.22
2022-12-17T12:26:19.411Z,-0.44
2022-12-17T12:29:35.655Z,-0.32
2022-12-17T12:33:04.354Z,-0.14
2022-12-17T12:36:18.876Z,-0.04
2022-12-17T12:39:28.882Z,0.03
2022-12-17T12:43:24.062Z,0.12
2022-12-17T12:46:36.588Z,0.05
2022-12-17T12:50:02.133Z,-0.12
2022-12-17T12:53:06.451Z,-0.39
2022-12-17T12:56:10.254Z,-0.66
2022-12-17T12:59:14.057Z,-0.58
2022-12-17T13:02:18.181Z,-0.44
2022-12-17T13:05:22.788Z,-0.39
2022-12-17T13:08:07.856Z,-0.34
2022-12-17T13:10:54.412Z,-0.38
2022-12-17T13:13:55.900Z,-0.41
2022-12-17T13:16:47.757Z,-0.33
2022-12-17T13:19:39.518Z,-0.28
2022-12-17T13:22:28.570Z,-0.30
2022-12-17T13:25:23.310Z,-0.41
2022-12-17T13:28:29.163Z,-0.46
2022-12-17T13:31:26.128Z,-0.48
2022-12-17T13:34:16.174Z,-0.43
2022-12-17T13:37:19.881Z,-0.40
2022-12-17T13:40:54.598Z,-0.40
2022-12-17T13:43:46.597Z,0.42
2022-12-17T13:46:46.944Z,0.68
2022-12-17T13:49:32.795Z,0.44
2022-12-17T13:52:20.723Z,0.25
2022-12-17T13:55:16.643Z,0.17
2022-12-17T13:58:01.998Z,0.11
2022-12-17T14:00:47.501Z,0.05
2022-12-17T14:03:57.070Z,-0.10
2022-12-17T14:06:38.616Z,-0.25
2022-12-17T14:09:32.025Z,-0.31
2022-12-17T14:12:24.999Z,-0.39
2022-12-17T14:15:22.607Z,-0.38
2022-12-17T14:18:15.904Z,-0.38
2022-12-17T14:21:01.223Z,-0.38
2022-12-17T14:24:01.347Z,-0.41
2022-12-17T14:26:51.142Z,-0.46
2022-12-17T14:29:46.619Z,-0.50
2022-12-17T14:32:36.845Z,-0.58
2022-12-17T14:35:34.852Z,-0.63
2022-12-17T14:38:36.981Z,-0.68
2022-12-17T14:41:42.570Z,-0.70
2022-12-17T14:44:30.181Z,-0.71
2022-12-17T14:47:23.786Z,-0.66
2022-12-17T14:50:14.182Z,-0.66
2022-12-17T14:53:02.586Z,-0.62
2022-12-17T14:56:00.107Z,-0.58
2022-12-17T14:58:45.867Z,-0.57
2022-12-17T15:01:32.408Z,-0.58
2022-12-17T15:04:20.909Z,-0.51
2022-12-17T15:07:10.957Z,-0.46
2022-12-17T15:10:00.094Z,-0.41
2022-12-17T15:12:45.705Z,-0.43
2022-12-17T15:15:30.945Z,-0.40
2022-12-17T15:18:19.748Z,-0.51
2022-12-17T15:21:05.666Z,-0.62
2022-12-17T15:23:51.205Z,-0.62
2022-12-17T15:26:38.980Z,-0.62
2022-12-17T15:29:27.014Z,-0.66
2022-12-17T15:32:21.234Z,-0.69
2022-12-17T15:35:07.496Z,-0.73
2022-12-17T15:37:52.907Z,-0.85
2022-12-17T15:40:39.160Z,-0.91
2022-12-17T15:43:24.311Z,-0.91
2022-12-17T15:46:10.693Z,-0.92
2022-12-17T15:48:56.667Z,-0.95
2022-12-17T15:51:41.793Z,-0.95
2022-12-17T15:54:27.190Z,-0.88
2022-12-17T15:57:18.491Z,-0.81
2022-12-17T16:00:08.045Z,-0.75
2022-12-17T16:02:55.592Z,-0.67
2022-12-17T16:05:45.035Z,-0.61
2022-12-17T16:08:30.454Z,-0.62
2022-12-17T16:11:16.077Z,-0.62
2022-12-17T16:14:01.545Z,-0.67
2022-12-17T16:16:47.061Z,-0.75
2022-12-17T16:19:32.186Z,-0.79
2022-12-17T16:22:17.431Z,-0.79
2022-12-17T16:25:02.833Z,-0.90
2022-12-17T16:27:48.046Z,-0.90
2022-12-17T16:30:33.259Z,-0.90
2022-12-17T16:33:19.215Z,-0.91
2022-12-17T16:36:07.026Z,-0.86
2022-12-17T16:38:54.613Z,-0.89
2022-12-17T16:41:40.003Z,-0.98
2022-12-17T16:44:25.426Z,-1.05
2022-12-17T16:47:10.953Z,-1.03
2022-12-17T16:49:56.569Z,-1.02
2022-12-17T16:52:42.022Z,-1.09
2022-12-17T16:55:27.271Z,-1.09
2022-12-17T16:58:13.304Z,-1.14
2022-12-17T17:00:58.455Z,-1.13
2022-12-17T17:03:43.875Z,-1.12
2022-12-17T17:06:33.590Z,-1.09
2022-12-17T17:09:20.203Z,-1.05
2022-12-17T17:12:05.935Z,-0.99
2022-12-17T17:14:51.049Z,-0.97
2022-12-17T17:17:55.922Z,-1.01
2022-12-17T17:20:42.089Z,-0.99
2022-12-17T17:23:27.402Z,-1.01
2022-12-17T17:26:13.706Z,-1.01
2022-12-17T17:28:59.883Z,-1.04
2022-12-17T17:34:50.808Z,-1.17
2022-12-17T17:37:35.919Z,-1.18
2022-12-17T17:40:21.450Z,-1.14
2022-12-17T17:43:06.635Z,-1.10
2022-12-17T17:45:53.035Z,-1.14
2022-12-17T17:48:38.701Z,-1.03
2022-12-17T17:52:07.226Z,-1.06
2022-12-17T17:54:35.642Z,-1.12
2022-12-17T17:57:20.794Z,-1.14
2022-12-17T18:00:06.700Z,-1.18
2022-12-17T18:02:52.024Z,-1.21
2022-12-17T18:05:41.751Z,-1.23
2022-12-17T18:08:29.665Z,-1.26
2022-12-17T18:11:22.916Z,-1.26
2022-12-17T18:14:10.270Z,-1.28
2022-12-17T18:16:55.420Z,-1.25
2022-12-17T18:19:40.780Z,-1.25
2022-12-17T18:22:28.241Z,-1.21
2022-12-17T18:25:14.002Z,-1.21
2022-12-17T18:28:01.863Z,-1.22
2022-12-17T18:30:46.835Z,-1.28
2022-12-17T18:33:31.988Z,-1.27
2022-12-17T18:36:29.803Z,-1.31
2022-12-17T18:39:18.075Z,-1.34
2022-12-17T18:42:21.983Z,-1.38
2022-12-17T18:45:07.686Z,-1.51
2022-12-17T18:47:53.252Z,-1.49
2022-12-17T18:50:38.351Z,-1.53
2022-12-17T18:53:26.430Z,-1.55
2022-12-17T18:56:19.367Z,-1.58
2022-12-17T18:59:13.670Z,-1.57
2022-12-17T19:01:58.988Z,-1.57
2022-12-17T19:04:44.368Z,-1.64
2022-12-17T19:07:29.428Z,-1.65
2022-12-17T19:10:14.936Z,-1.62
2022-12-17T19:12:59.987Z,-1.66
2022-12-17T19:15:45.465Z,-1.71
2022-12-17T19:18:31.055Z,-1.79
2022-12-17T19:21:16.338Z,-1.90
2022-12-17T19:24:04.327Z,-1.96
2022-12-17T19:26:52.909Z,-1.94
2022-12-17T19:29:38.351Z,-1.90
2022-12-17T19:32:24.706Z,-1.83
2022-12-17T19:35:10.182Z,-1.91
2022-12-17T19:37:55.718Z,-1.96
2022-12-17T19:40:41.662Z,-2.04
2022-12-17T19:43:26.660Z,-2.08
2022-12-17T19:46:17.507Z,-2.12
2022-12-17T19:49:04.381Z,-2.08
2022-12-17T19:51:49.447Z,-2.20
2022-12-17T19:54:34.666Z,-2.29
2022-12-17T19:57:20.337Z,-2.29
2022-12-17T20:00:06.043Z,-2.23
2022-12-17T20:02:58.209Z,-2.18
2022-12-17T20:05:45.544Z,-2.11
2022-12-17T20:08:32.152Z,-2.04
2022-12-17T20:11:33.562Z,-2.06
2022-12-17T20:14:21.955Z,-2.06
2022-12-17T20:17:07.510Z,-2.12
2022-12-17T20:19:53.745Z,-2.15
2022-12-17T20:22:40.694Z,-2.18
2022-12-17T20:25:25.840Z,-2.28
2022-12-17T20:28:11.181Z,-2.31
2022-12-17T20:30:58.035Z,-2.31
2022-12-17T20:33:43.455Z,-2.32
2022-12-17T20:36:29.078Z,-2.31
2022-12-17T20:39:14.513Z,-2.42
2022-12-17T20:41:59.696Z,-2.52
2022-12-17T20:44:50.043Z,-2.50
2022-12-17T20:47:38.574Z,-2.43
2022-12-17T20:50:24.159Z,-2.41
2022-12-17T20:53:09.375Z,-2.38
2022-12-17T20:56:02.914Z,-2.36
2022-12-17T20:58:51.843Z,-2.37
2022-12-17T21:01:37.279Z,-2.34
2022-12-17T21:04:23.221Z,-2.33
2022-12-17T21:07:08.401Z,-2.33
2022-12-17T21:09:53.683Z,-2.35
2022-12-17T21:12:57.634Z,-2.29
2022-12-17T21:15:48.906Z,-2.35
2022-12-17T21:18:34.422Z,-2.33
2022-12-17T21:21:23.370Z,-2.31
2022-12-17T21:24:09.795Z,-2.30
2022-12-17T21:26:54.980Z,-2.33
2022-12-17T21:29:40.562Z,-2.48
2022-12-17T21:32:31.875Z,-2.50
2022-12-17T21:35:18.925Z,-2.57
2022-12-17T21:38:04.268Z,-2.60
2022-12-17T21:40:50.994Z,-2.62
2022-12-17T21:43:37.102Z,-2.61
2022-12-17T21:46:23.597Z,-2.60
2022-12-17T21:49:09.804Z,-2.64
2022-12-17T21:51:55.336Z,-2.59
2022-12-17T21:54:40.651Z,-2.58
2022-12-17T21:57:26.050Z,-2.51
2022-12-17T22:00:12.079Z,-2.52
2022-12-17T22:02:57.897Z,-2.59
2022-12-17T22:05:43.528Z,-2.63
2022-12-17T22:08:28.706Z,-2.68
2022-12-17T22:11:17.029Z,-2.69
2022-12-17T22:14:13.809Z,-2.68
2022-12-17T22:17:02.527Z,-2.67
2022-12-17T22:19:48.137Z,-2.66
2022-12-17T22:22:33.327Z,-2.72
2022-12-17T22:25:18.935Z,-2.76
2022-12-17T22:28:04.930Z,-2.74
2022-12-17T22:31:08.887Z,-2.84
2022-12-17T22:34:16.941Z,-2.91
2022-12-17T22:39:28.093Z,-2.88
2022-12-17T22:44:30.302Z,-2.87
2022-12-17T22:44:45.255Z,-2.80
2022-12-17T22:46:34.942Z,-2.76
2022-12-17T22:49:20.089Z,-2.74
2022-12-17T22:52:05.403Z,-2.75
2022-12-17T22:54:51.139Z,-2.78
2022-12-17T22:57:38.497Z,-2.80
2022-12-17T23:00:28.905Z,-2.86
2022-12-17T23:03:14.542Z,-2.93
2022-12-17T23:06:15.718Z,-2.93
2022-12-17T23:09:01.227Z,-2.96
2022-12-17T23:11:48.011Z,-3.06
2022-12-17T23:14:33.134Z,-3.05
2022-12-17T23:17:18.580Z,-3.05
2022-12-17T23:20:04.110Z,-3.00
2022-12-17T23:22:49.988Z,-2.93
2022-12-17T23:25:35.532Z,-2.95
2022-12-17T23:28:23.695Z,-3.00
2022-12-17T23:31:18.965Z,-3.01
2022-12-17T23:34:04.849Z,-3.05
2022-12-17T23:36:50.446Z,-2.97
2022-12-17T23:39:37.629Z,-3.08
2022-12-17T23:42:22.928Z,-3.13
2022-12-17T23:45:10.947Z,-3.24
2022-12-17T23:47:57.409Z,-3.28
2022-12-17T23:50:42.631Z,-3.29
2022-12-17T23:53:28.918Z,-3.25
2022-12-17T23:56:21.050Z,-3.13
2022-12-17T23:59:06.518Z,-3.14
